Time;durP1;ratioP1;P1;durP2;ratioP2;P2;SDS_P1;SDS_P2;PMS_P1;PMS_P2;Temp;Humidity;BMP_temperature;BMP_pressure;BME280_temperature;BME280_humidity;BME280_pressure;Samples;Min_cycle;Max_cycle;Signal;HPM_P1;HPM_P2
2023/01/17 00:01:05;;;;;;;2.60;2.40;;;4.60;99.90;;;;;;5113981;28;20396;-63
2023/01/17 00:03:32;;;;;;;2.50;2.30;;;4.60;99.90;;;;;;5113088;28;20408;-63
2023/01/17 00:11:32;;;;;;;2.40;2.20;;;4.50;99.90;;;;;;5112389;28;20407;-63
2023/01/17 00:13:59;;;;;;;2.30;2.10;;;4.50;99.90;;;;;;5111867;28;20415;-63
2023/01/17 00:16:26;;;;;;;2.60;2.30;;;4.50;99.90;;;;;;5112485;28;20435;-62
2023/01/17 01:35:59;;;;;;;4.60;4.20;;;3.90;99.90;;;;;;5115898;28;20900;-61
2023/01/17 01:38:26;;;;;;;5.28;4.78;;;3.80;99.90;;;;;;5114831;28;20412;-62
2023/01/17 01:40:55;;;;;;;5.10;4.60;;;3.80;99.90;;;;;;5114806;28;20416;-63
2023/01/17 01:43:41;;;;;;;5.70;5.10;;;3.80;99.90;;;;;;5114886;28;20409;-62
2023/01/17 01:46:11;;;;;;;5.80;5.20;;;3.80;99.90;;;;;;5114856;28;20826;-62
2023/01/17 01:48:44;;;;;;;6.75;5.80;;;3.80;99.90;;;;;;5115467;28;20412;-65
2023/01/17 01:51:13;;;;;;;5.93;5.32;;;3.80;99.90;;;;;;5115474;28;20414;-62
2023/01/17 01:53:44;;;;;;;5.70;5.20;;;3.80;99.90;;;;;;5114890;28;20404;-62
2023/01/17 01:56:14;;;;;;;5.40;4.90;;;3.80;99.90;;;;;;5114595;28;20416;-62
2023/01/17 01:58:46;;;;;;;4.70;4.30;;;3.80;99.90;;;;;;5114784;28;20447;-62
2023/01/17 02:01:14;;;;;;;5.00;4.50;;;3.80;99.90;;;;;;5114511;28;20416;-62
2023/01/17 02:03:41;;;;;;;4.73;4.30;;;3.80;99.90;;;;;;5114465;28;20469;-62
2023/01/17 02:06:19;;;;;;;4.78;4.38;;;3.90;99.90;;;;;;5115621;28;20479;-62
2023/01/17 02:08:46;;;;;;;4.50;4.10;;;3.80;99.90;;;;;;5115547;28;20412;-63
2023/01/17 02:11:14;;;;;;;5.07;4.57;;;3.90;99.90;;;;;;5115229;28;20419;-63
2023/01/17 02:13:42;;;;;;;4.97;4.50;;;3.90;99.90;;;;;;5114721;28;20412;-63
2023/01/17 02:16:24;;;;;;;4.75;4.35;;;3.90;99.90;;;;;;5114069;28;20421;-63
2023/01/17 02:18:59;;;;;;;4.45;4.05;;;3.90;99.90;;;;;;5115474;28;20412;-62
2023/01/17 02:21:29;;;;;;;3.10;2.80;;;3.80;99.90;;;;;;5115916;28;20420;-62
2023/01/17 02:24:25;;;;;;;3.85;3.47;;;3.80;99.90;;;;;;5116014;28;20443;-62
2023/01/17 02:27:05;;;;;;;4.10;3.70;;;3.70;99.90;;;;;;5114865;28;20434;-62
2023/01/17 02:30:04;;;;;;;3.97;3.53;;;3.70;99.90;;;;;;5113868;28;20407;-62
2023/01/17 02:32:45;;;;;;;3.83;3.50;;;3.70;99.90;;;;;;5114133;28;20420;-62
2023/01/17 02:35:19;;;;;;;3.92;3.53;;;3.60;99.90;;;;;;5113616;28;20477;-62
2023/01/17 02:37:53;;;;;;;3.88;3.38;;;3.60;99.90;;;;;;5114444;28;20499;-63
2023/01/17 02:40:26;;;;;;;3.88;3.47;;;3.60;99.90;;;;;;5114090;28;20419;-62
2023/01/17 02:42:56;;;;;;;4.28;3.70;;;3.60;99.90;;;;;;5113964;28;20432;-62
2023/01/17 02:45:23;;;;;;;3.70;3.30;;;3.60;99.90;;;;;;5113767;28;20409;-62
2023/01/17 02:47:51;;;;;;;3.83;3.42;;;3.60;99.90;;;;;;5113823;28;20724;-62
2023/01/17 02:50:20;;;;;;;3.40;3.10;;;3.60;99.90;;;;;;5112733;28;20408;-61
2023/01/17 02:53:05;;;;;;;3.77;3.40;;;3.50;99.90;;;;;;5113236;28;20431;-62
2023/01/17 02:55:51;;;;;;;3.80;3.40;;;3.50;99.90;;;;;;5113213;28;20420;-61
2023/01/17 02:58:34;;;;;;;4.40;4.00;;;3.50;99.90;;;;;;5113651;28;20408;-62
2023/01/17 03:01:11;;;;;;;3.85;3.53;;;3.50;99.90;;;;;;5113719;28;20416;-63
2023/01/17 03:03:46;;;;;;;3.97;3.23;;;3.50;99.90;;;;;;5113523;28;20408;-62
2023/01/17 03:06:16;;;;;;;3.70;3.10;;;3.60;99.90;;;;;;5113119;28;20868;-62
2023/01/17 03:08:46;;;;;;;3.38;3.08;;;3.60;99.90;;;;;;5113692;28;20408;-62
2023/01/17 03:11:14;;;;;;;3.50;3.20;;;3.50;99.90;;;;;;5113312;28;20765;-63
2023/01/17 03:13:41;;;;;;;3.97;3.58;;;3.50;99.90;;;;;;5113461;28;20407;-62
2023/01/17 03:16:13;;;;;;;4.40;3.65;;;3.50;99.90;;;;;;5114151;28;20760;-63
2023/01/17 03:18:41;;;;;;;3.90;3.10;;;3.50;99.90;;;;;;5113933;28;20412;-62
2023/01/17 03:21:08;;;;;;;3.40;3.10;;;3.60;99.90;;;;;;5113198;28;20768;-63
2023/01/17 03:23:35;;;;;;;3.00;2.70;;;3.60;99.90;;;;;;5113226;28;20900;-61
2023/01/17 03:26:02;;;;;;;2.75;2.55;;;3.60;99.90;;;;;;5113720;28;20427;-62
2023/01/17 03:28:28;;;;;;;2.90;2.70;;;3.60;99.90;;;;;;5113393;28;20515;-62
2023/01/17 03:30:55;;;;;;;3.20;2.60;;;3.60;99.90;;;;;;5113329;28;20412;-61
2023/01/17 03:33:22;;;;;;;3.70;2.80;;;3.60;99.90;;;;;;5113070;28;20413;-62
2023/01/17 03:35:50;;;;;;;2.80;2.60;;;3.60;99.90;;;;;;5113261;28;20424;-61
2023/01/17 03:38:18;;;;;;;2.50;2.30;;;3.70;99.90;;;;;;5113055;28;20487;-62
2023/01/17 03:40:45;;;;;;;2.75;2.55;;;3.70;99.90;;;;;;5113508;28;20403;-62
2023/01/17 03:43:11;;;;;;;2.40;2.20;;;3.70;99.90;;;;;;5112721;28;20928;-63
2023/01/17 03:45:38;;;;;;;2.70;2.30;;;3.70;99.90;;;;;;5113307;28;20404;-61
2023/01/17 03:48:06;;;;;;;2.30;2.10;;;3.70;99.90;;;;;;5113758;28;20493;-62
2023/01/17 03:50:32;;;;;;;2.60;2.40;;;3.80;99.90;;;;;;5112752;28;20957;-62
2023/01/17 03:53:00;;;;;;;2.50;2.30;;;3.80;99.90;;;;;;5112875;28;20409;-62
2023/01/17 03:55:27;;;;;;;2.60;2.40;;;3.80;99.90;;;;;;5112596;28;20506;-62
2023/01/17 03:57:54;;;;;;;2.80;2.50;;;3.80;99.90;;;;;;5113172;28;20411;-62
2023/01/17 04:00:21;;;;;;;3.20;2.80;;;3.80;99.90;;;;;;5112646;28;20404;-62
2023/01/17 04:02:48;;;;;;;3.80;2.90;;;3.80;99.90;;;;;;5113343;28;20420;-62
2023/01/17 04:05:15;;;;;;;3.40;3.10;;;3.80;99.90;;;;;;5112640;28;20417;-62
2023/01/17 04:11:01;;;;;;;3.83;3.42;;;3.80;99.90;;;;;;5110364;27;20349;-61
2023/01/17 04:13:28;;;;;;;3.80;3.40;;;3.80;99.90;;;;;;5109935;28;20869;-62
2023/01/17 04:15:55;;;;;;;4.30;3.60;;;3.90;99.90;;;;;;5110206;28;20413;-61
2023/01/17 04:18:23;;;;;;;4.30;3.40;;;3.90;99.90;;;;;;5110003;28;20409;-61
2023/01/17 04:20:50;;;;;;;3.63;3.33;;;3.90;99.90;;;;;;5109515;28;20428;-62
2023/01/17 04:23:17;;;;;;;3.45;3.15;;;3.90;99.90;;;;;;5109671;28;20409;-63
2023/01/17 04:25:44;;;;;;;3.45;3.15;;;3.90;99.90;;;;;;5109561;28;20409;-63
2023/01/17 04:28:13;;;;;;;3.60;3.30;;;3.90;99.90;;;;;;5110474;28;20420;-63
2023/01/17 04:30:39;;;;;;;3.30;3.00;;;3.90;99.90;;;;;;5109799;28;21025;-63
2023/01/17 04:35:48;;;;;;;3.10;2.80;;;3.90;99.90;;;;;;5047470;28;20437;-61
2023/01/17 04:38:14;;;;;;;2.50;2.30;;;4.00;99.90;;;;;;5048555;28;20414;-61
2023/01/17 04:40:41;;;;;;;2.42;2.20;;;3.90;99.90;;;;;;5048294;28;20414;-62
2023/01/17 04:43:08;;;;;;;2.00;1.80;;;3.90;99.90;;;;;;5048022;28;20791;-61
2023/01/17 04:45:37;;;;;;;2.45;1.80;;;3.90;99.90;;;;;;5048187;28;20416;-61
2023/01/17 04:48:05;;;;;;;2.10;1.80;;;3.90;99.90;;;;;;5048186;28;20426;-58
2023/01/17 04:50:32;;;;;;;1.80;1.50;;;3.90;99.90;;;;;;5048405;28;20430;-60
2023/01/17 04:52:59;;;;;;;1.60;1.50;;;3.90;99.90;;;;;;5048780;28;20818;-60
2023/01/17 04:55:26;;;;;;;2.50;1.65;;;3.90;99.90;;;;;;5048561;28;20787;-60
2023/01/17 04:57:53;;;;;;;2.10;1.30;;;3.80;99.90;;;;;;5048217;28;20421;-60
2023/01/17 05:00:20;;;;;;;1.77;1.60;;;3.80;99.90;;;;;;5048300;28;20418;-59
2023/01/17 05:02:49;;;;;;;1.60;1.30;;;3.80;99.90;;;;;;5047608;28;20424;-60
2023/01/17 05:05:16;;;;;;;1.30;1.20;;;3.80;99.90;;;;;;5048034;28;20422;-60
2023/01/17 05:07:43;;;;;;;1.33;1.02;;;3.70;99.90;;;;;;5048314;28;20421;-61
2023/01/17 05:10:11;;;;;;;1.00;0.90;;;3.70;99.90;;;;;;5047462;28;20764;-61
2023/01/17 05:12:37;;;;;;;1.10;0.90;;;3.60;99.90;;;;;;5047843;28;20414;-61
2023/01/17 05:15:05;;;;;;;0.80;0.75;;;3.60;99.90;;;;;;5047870;28;20415;-60
2023/01/17 05:17:32;;;;;;;1.10;0.90;;;3.50;99.90;;;;;;5048203;28;20414;-60
2023/01/17 05:20:00;;;;;;;1.15;0.80;;;3.50;99.90;;;;;;5048091;28;20406;-60
2023/01/17 05:22:27;;;;;;;0.98;0.80;;;3.40;99.90;;;;;;5034321;28;20415;-61
2023/01/17 05:24:54;;;;;;;1.52;0.90;;;3.40;99.90;;;;;;5033970;28;20791;-61
2023/01/17 05:27:20;;;;;;;1.52;1.20;;;3.30;99.90;;;;;;5034569;28;20790;-59
2023/01/17 05:29:47;;;;;;;1.30;1.00;;;3.30;99.90;;;;;;5034486;28;20521;-60
2023/01/17 05:32:14;;;;;;;0.90;0.70;;;3.30;99.90;;;;;;5034681;28;20419;-61
2023/01/17 05:34:41;;;;;;;1.20;0.70;;;3.20;99.90;;;;;;5044960;28;20421;-60
2023/01/17 05:37:09;;;;;;;1.30;0.60;;;3.10;99.90;;;;;;5054577;28;20435;-59
2023/01/17 05:39:36;;;;;;;2.80;0.97;;;2.90;99.90;;;;;;5054877;28;20424;-60
2023/01/17 05:42:03;;;;;;;1.10;0.70;;;2.80;99.90;;;;;;5054911;28;20501;-59
2023/01/17 05:44:29;;;;;;;1.10;0.70;;;2.70;99.90;;;;;;5054322;28;20417;-60
2023/01/17 05:46:56;;;;;;;1.95;0.82;;;2.60;99.90;;;;;;5053810;28;20413;-59
2023/01/17 05:49:23;;;;;;;1.90;1.00;;;2.50;99.90;;;;;;5053843;28;20425;-60
2023/01/17 05:51:50;;;;;;;0.80;0.70;;;2.50;99.90;;;;;;5054666;28;20419;-59
2023/01/17 05:54:18;;;;;;;1.20;0.70;;;2.30;99.90;;;;;;5053782;28;20411;-59
2023/01/17 05:56:45;;;;;;;1.50;0.70;;;2.20;99.90;;;;;;5054290;28;20413;-60
2023/01/17 05:59:12;;;;;;;1.90;0.90;;;2.10;99.90;;;;;;5053323;28;20935;-58
2023/01/17 06:01:39;;;;;;;1.45;0.80;;;2.00;99.90;;;;;;5054537;28;20414;-60
2023/01/17 06:04:06;;;;;;;1.20;0.73;;;1.90;99.90;;;;;;5053558;28;20417;-60
2023/01/17 06:06:33;;;;;;;1.63;0.80;;;1.90;99.90;;;;;;5053623;28;20517;-60
2023/01/17 06:08:59;;;;;;;1.20;0.90;;;1.90;99.90;;;;;;5054417;28;20421;-60
2023/01/17 06:11:28;;;;;;;1.37;1.10;;;1.80;99.90;;;;;;5053753;28;20509;-61
2023/01/17 06:13:54;;;;;;;1.48;1.10;;;1.80;99.90;;;;;;5054039;28;20477;-60
2023/01/17 06:16:21;;;;;;;1.85;1.08;;;1.80;99.90;;;;;;5055437;28;20447;-60
2023/01/17 06:18:48;;;;;;;1.30;1.10;;;1.90;99.90;;;;;;5054013;28;20417;-60
2023/01/17 06:21:15;;;;;;;1.83;1.20;;;1.90;99.90;;;;;;5054143;28;20727;-61
2023/01/17 06:23:41;;;;;;;2.25;1.10;;;1.90;99.90;;;;;;5051049;28;20433;-61
2023/01/17 06:26:09;;;;;;;1.80;1.00;;;2.00;99.90;;;;;;5050842;28;20757;-60
2023/01/17 06:28:37;;;;;;;1.38;0.90;;;2.00;99.90;;;;;;5053803;28;20421;-60
2023/01/17 06:31:08;;;;;;;1.30;1.00;;;2.10;99.90;;;;;;5052781;28;20489;-58
2023/01/17 06:33:34;;;;;;;1.60;0.80;;;2.10;99.90;;;;;;5052711;28;20418;-60
2023/01/17 06:36:01;;;;;;;1.50;1.10;;;2.10;99.90;;;;;;5052334;28;20935;-61
2023/01/17 06:38:28;;;;;;;2.47;1.30;;;2.10;99.90;;;;;;5053353;28;20413;-59
2023/01/17 06:40:59;;;;;;;2.58;1.40;;;2.10;99.90;;;;;;5049130;28;20471;-60
2023/01/17 06:43:27;;;;;;;1.70;1.20;;;2.10;99.90;;;;;;5053597;28;20410;-59
2023/01/17 06:45:55;;;;;;;3.47;1.67;;;2.00;99.90;;;;;;5053334;28;20417;-60
2023/01/17 06:48:22;;;;;;;4.13;2.00;;;2.00;99.90;;;;;;5053011;28;20471;-60
2023/01/17 06:50:49;;;;;;;3.80;1.90;;;1.90;99.90;;;;;;5052689;28;20440;-60
2023/01/17 06:53:16;;;;;;;4.27;2.27;;;1.80;99.90;;;;;;5051487;28;20882;-59
2023/01/17 06:55:43;;;;;;;3.67;1.80;;;1.90;99.90;;;;;;5052925;28;20509;-59
2023/01/17 06:58:10;;;;;;;3.80;1.70;;;1.90;99.90;;;;;;5052889;28;20423;-58
2023/01/17 07:00:36;;;;;;;3.50;2.00;;;1.90;99.90;;;;;;5052908;28;20412;-60
2023/01/17 07:03:05;;;;;;;3.40;1.50;;;1.90;99.90;;;;;;5052818;28;20932;-61
2023/01/17 07:05:31;;;;;;;1.90;1.25;;;2.00;99.90;;;;;;5052751;28;20413;-61
2023/01/17 07:07:58;;;;;;;1.92;1.20;;;2.00;99.90;;;;;;5052377;28;20981;-57
2023/01/17 07:10:25;;;;;;;3.22;1.20;;;2.00;99.90;;;;;;5052888;28;20502;-60
2023/01/17 07:12:58;;;;;;;2.25;1.08;;;2.00;99.90;;;;;;5053074;28;20460;-61
2023/01/17 07:15:25;;;;;;;2.10;1.10;;;2.00;99.90;;;;;;5052473;28;20413;-61
2023/01/17 07:17:52;;;;;;;1.58;1.30;;;2.10;99.90;;;;;;5053028;28;20413;-61
2023/01/17 07:20:20;;;;;;;1.50;1.30;;;2.10;99.90;;;;;;5054948;28;20420;-62
2023/01/17 07:22:47;;;;;;;2.33;1.40;;;2.10;99.90;;;;;;5052718;28;20428;-60
2023/01/17 07:25:14;;;;;;;2.08;1.10;;;2.20;99.90;;;;;;5053216;28;20435;-61
2023/01/17 07:27:40;;;;;;;2.65;1.02;;;2.10;99.90;;;;;;5054194;28;20421;-61
2023/01/17 07:30:09;;;;;;;1.50;1.13;;;2.10;99.90;;;;;;5054482;28;20429;-63
2023/01/17 07:32:36;;;;;;;3.42;1.30;;;2.10;99.90;;;;;;5054460;28;20421;-60
2023/01/17 07:35:02;;;;;;;2.92;1.00;;;2.10;99.90;;;;;;5054535;28;20421;-62
2023/01/17 07:37:35;;;;;;;1.50;1.10;;;2.10;99.90;;;;;;5053451;28;20782;-65
2023/01/17 07:40:26;;;;;;;2.00;1.20;;;2.10;99.90;;;;;;5055897;28;20406;-65
2023/01/17 07:43:00;;;;;;;2.42;1.20;;;2.10;99.90;;;;;;5053190;28;20417;-63
2023/01/17 07:45:27;;;;;;;2.55;1.35;;;2.10;99.90;;;;;;5052068;28;20413;-62
2023/01/17 07:47:56;;;;;;;4.50;1.60;;;2.10;99.90;;;;;;5052730;28;20821;-63
2023/01/17 07:50:23;;;;;;;2.63;1.43;;;2.10;99.90;;;;;;5052670;28;21041;-62
2023/01/17 07:52:51;;;;;;;3.22;1.42;;;2.10;99.90;;;;;;5053175;28;20464;-62
2023/01/17 07:55:18;;;;;;;2.10;1.40;;;2.10;99.90;;;;;;5053041;28;20421;-63
2023/01/17 07:57:48;;;;;;;4.90;2.00;;;2.10;99.90;;;;;;5052990;28;20492;-60
2023/01/17 08:00:16;;;;;;;6.07;1.70;;;2.10;99.90;;;;;;5052117;28;20979;-63
2023/01/17 08:02:43;;;;;;;2.83;1.70;;;2.10;99.90;;;;;;5051748;28;20409;-63
2023/01/17 08:05:10;;;;;;;1.55;1.40;;;2.10;99.90;;;;;;5051834;28;20440;-62
2023/01/17 08:07:37;;;;;;;3.60;1.60;;;2.20;99.90;;;;;;5052089;28;20426;-64
2023/01/17 08:10:07;;;;;;;3.65;1.80;;;2.20;99.90;;;;;;5051737;28;20447;-64
2023/01/17 08:12:34;;;;;;;3.17;1.80;;;2.20;99.90;;;;;;5051575;28;20417;-64
2023/01/17 08:15:05;;;;;;;1.88;1.40;;;2.20;99.90;;;;;;5051865;28;20413;-61
2023/01/17 08:17:31;;;;;;;5.00;1.90;;;2.30;99.90;;;;;;5053198;28;20508;-72
2023/01/17 08:19:59;;;;;;;4.70;1.60;;;2.30;99.90;;;;;;5052330;28;20413;-62
2023/01/17 08:22:25;;;;;;;3.63;1.70;;;2.40;99.90;;;;;;5051931;28;20460;-62
2023/01/17 08:24:52;;;;;;;3.33;1.60;;;2.40;99.90;;;;;;5051636;28;20483;-62
2023/01/17 08:27:21;;;;;;;6.25;1.70;;;2.50;99.90;;;;;;5052128;28;20412;-62
2023/01/17 08:29:48;;;;;;;3.50;1.80;;;2.50;99.90;;;;;;5051435;28;20421;-63
2023/01/17 08:32:15;;;;;;;3.72;1.90;;;2.50;99.90;;;;;;5051499;28;20464;-61
2023/01/17 08:34:42;;;;;;;4.78;1.75;;;2.50;99.90;;;;;;5052095;28;20421;-60
2023/01/17 08:37:09;;;;;;;4.30;1.60;;;2.60;99.90;;;;;;5051640;28;20513;-62
2023/01/17 08:39:35;;;;;;;3.45;1.48;;;2.60;99.90;;;;;;5051948;28;20417;-60
2023/01/17 08:42:02;;;;;;;2.90;1.45;;;2.60;99.90;;;;;;5051263;28;20949;-61
2023/01/17 08:44:31;;;;;;;5.38;1.80;;;2.70;99.90;;;;;;5051564;28;20828;-62
2023/01/17 08:46:58;;;;;;;6.30;1.77;;;2.70;99.90;;;;;;5051354;28;20925;-61
2023/01/17 08:49:24;;;;;;;4.40;1.60;;;2.70;99.90;;;;;;5051591;28;20794;-62
2023/01/17 08:51:51;;;;;;;4.68;1.40;;;2.80;99.90;;;;;;5051122;28;20437;-62
2023/01/17 08:54:18;;;;;;;3.28;1.30;;;2.80;99.90;;;;;;5051816;28;20421;-62
2023/01/17 08:56:46;;;;;;;5.10;1.50;;;2.80;99.90;;;;;;5053781;28;20487;-61
2023/01/17 08:59:13;;;;;;;4.82;1.65;;;2.80;99.90;;;;;;5055368;28;20766;-60
2023/01/17 09:01:44;;;;;;;4.53;1.60;;;2.80;99.90;;;;;;5055293;28;20722;-62
2023/01/17 09:04:11;;;;;;;4.93;1.80;;;2.80;99.90;;;;;;5055989;28;20425;-61
2023/01/17 09:06:40;;;;;;;2.67;1.30;;;2.80;99.90;;;;;;5055869;28;20420;-62
2023/01/17 09:09:09;;;;;;;3.75;1.50;;;2.70;99.90;;;;;;5056174;28;20413;-62
2023/01/17 09:11:36;;;;;;;5.82;1.88;;;2.70;99.90;;;;;;5055553;28;20928;-64
2023/01/17 09:14:04;;;;;;;4.22;1.60;;;2.70;99.90;;;;;;5055367;28;20417;-63
2023/01/17 09:16:31;;;;;;;3.40;1.60;;;2.70;99.90;;;;;;5054813;28;20504;-62
2023/01/17 09:18:59;;;;;;;2.42;1.60;;;2.70;99.90;;;;;;5054350;28;20444;-63
2023/01/17 09:21:27;;;;;;;4.60;2.00;;;2.80;99.90;;;;;;5054203;28;20409;-62
2023/01/17 09:23:55;;;;;;;3.20;1.60;;;2.80;99.90;;;;;;5054564;28;20435;-61
2023/01/17 09:26:23;;;;;;;4.20;1.90;;;2.80;99.90;;;;;;5054282;28;20504;-61
2023/01/17 09:28:51;;;;;;;5.28;1.60;;;2.80;99.90;;;;;;5054907;28;20893;-61
2023/01/17 09:31:19;;;;;;;7.00;1.80;;;2.80;99.90;;;;;;5054487;28;20429;-62
2023/01/17 09:33:46;;;;;;;2.42;1.20;;;2.90;99.90;;;;;;5054169;28;20963;-62
2023/01/17 09:36:14;;;;;;;3.00;1.52;;;2.90;99.90;;;;;;5054721;28;20449;-63
2023/01/17 09:38:42;;;;;;;4.35;2.20;;;3.00;99.90;;;;;;5054329;28;20409;-64
2023/01/17 09:41:26;;;;;;;4.83;2.00;;;3.00;99.90;;;;;;5054649;28;20413;-63
2023/01/17 09:43:59;;;;;;;4.13;1.35;;;3.10;99.90;;;;;;5053868;28;20413;-62
2023/01/17 09:46:29;;;;;;;3.13;1.42;;;3.10;99.90;;;;;;5055273;28;20417;-61
2023/01/17 09:49:03;;;;;;;4.40;1.77;;;3.10;99.90;;;;;;5054140;28;20417;-60
2023/01/17 09:51:31;;;;;;;4.78;1.90;;;3.20;99.90;;;;;;5053788;28;20425;-62
2023/01/17 09:53:59;;;;;;;3.78;1.70;;;3.20;99.90;;;;;;5054059;28;20413;-63
2023/01/17 09:56:31;;;;;;;4.55;1.70;;;3.30;99.90;;;;;;5054673;28;20417;-61
2023/01/17 09:59:23;;;;;;;5.00;1.70;;;3.30;99.90;;;;;;5053867;28;20417;-63
2023/01/17 10:02:00;;;;;;;4.80;1.47;;;3.40;99.90;;;;;;5049758;28;20466;-63
2023/01/17 10:04:47;;;;;;;2.85;1.30;;;3.40;99.90;;;;;;5054188;28;20433;-63
2023/01/17 10:07:29;;;;;;;3.35;1.48;;;3.40;99.90;;;;;;5053723;28;20417;-63
2023/01/17 10:10:19;;;;;;;5.03;1.40;;;3.40;99.90;;;;;;5054241;28;20431;-64
2023/01/17 10:12:54;;;;;;;4.60;1.50;;;3.40;99.90;;;;;;5053674;28;20441;-63
2023/01/17 10:15:49;;;;;;;3.80;1.40;;;3.40;99.90;;;;;;5054126;28;20418;-62
2023/01/17 10:18:43;;;;;;;4.75;1.50;;;3.50;99.90;;;;;;5053826;28;20424;-63
2023/01/17 10:21:16;;;;;;;5.10;1.90;;;3.50;99.90;;;;;;5053426;28;20957;-63
2023/01/17 10:24:12;;;;;;;4.65;1.77;;;3.60;99.90;;;;;;5054141;28;20421;-62
2023/01/17 10:26:40;;;;;;;3.55;1.55;;;3.60;99.90;;;;;;5053685;28;20797;-61
2023/01/17 10:29:16;;;;;;;2.60;1.70;;;3.60;99.90;;;;;;5053289;28;20417;-63
2023/01/17 10:31:49;;;;;;;4.20;1.73;;;3.60;99.90;;;;;;5054325;28;20787;-63
2023/01/17 10:34:20;;;;;;;5.15;1.60;;;3.60;99.90;;;;;;5089203;23;20461;-64
2023/01/17 10:36:52;;;;;;;3.20;1.70;;;3.60;99.90;;;;;;5097893;28;20409;-63
2023/01/17 10:39:22;;;;;;;6.70;1.60;;;3.60;99.90;;;;;;5097504;28;20414;-64
2023/01/17 10:41:57;;;;;;;5.20;2.10;;;3.60;99.90;;;;;;5096841;28;20425;-63
2023/01/17 10:44:30;;;;;;;3.03;1.50;;;3.70;99.90;;;;;;5096166;28;20406;-64
2023/01/17 10:47:01;;;;;;;6.47;1.83;;;3.70;99.90;;;;;;5096840;28;20750;-64
2023/01/17 10:49:28;;;;;;;3.65;1.80;;;3.80;99.90;;;;;;5096471;28;20406;-65
2023/01/17 10:52:15;;;;;;;5.55;2.60;;;4.00;99.90;;;;;;5096053;28;20426;-63
2023/01/17 10:55:17;;;;;;;7.75;2.70;;;4.10;99.90;;;;;;5096376;28;20410;-64
2023/01/17 10:57:45;;;;;;;3.40;1.88;;;4.20;99.90;;;;;;5095520;28;20410;-64
2023/01/17 11:00:24;;;;;;;5.68;2.25;;;4.30;99.90;;;;;;5095372;28;20509;-62
2023/01/17 11:02:51;;;;;;;5.22;2.53;;;4.30;99.90;;;;;;5095422;28;20417;-62
2023/01/17 11:05:23;;;;;;;4.35;2.53;;;4.40;99.90;;;;;;5094491;28;20442;-63
2023/01/17 11:08:01;;;;;;;5.43;3.38;;;4.40;99.90;;;;;;5094482;28;20422;-64
2023/01/17 11:10:45;;;;;;;5.85;3.10;;;4.40;99.90;;;;;;5094571;28;20418;-62
2023/01/17 11:13:25;;;;;;;3.35;2.20;;;4.40;99.90;;;;;;5093121;28;20433;-63
2023/01/17 11:15:56;;;;;;;6.22;2.28;;;4.50;99.90;;;;;;5094549;28;20422;-64
2023/01/17 11:18:26;;;;;;;4.95;2.10;;;4.40;99.90;;;;;;5094688;28;20418;-64
2023/01/17 11:20:53;;;;;;;5.95;2.17;;;4.40;99.90;;;;;;5094967;28;20422;-65
2023/01/17 11:23:22;;;;;;;4.30;2.30;;;4.40;99.90;;;;;;5097090;28;20406;-63
2023/01/17 11:25:53;;;;;;;5.50;2.20;;;4.50;99.90;;;;;;5094596;28;20413;-65
2023/01/17 11:28:29;;;;;;;2.40;1.92;;;4.50;99.90;;;;;;5095195;28;20441;-64
2023/01/17 11:30:57;;;;;;;3.70;1.90;;;4.50;99.90;;;;;;5094396;28;20417;-64
2023/01/17 11:33:52;;;;;;;2.78;2.03;;;4.60;99.90;;;;;;5094476;28;20488;-65
2023/01/17 11:36:22;;;;;;;7.22;1.90;;;4.60;99.90;;;;;;5095517;28;20433;-65
2023/01/17 11:39:01;;;;;;;4.97;1.90;;;4.70;99.90;;;;;;5094242;28;20409;-62
2023/01/17 11:41:34;;;;;;;4.18;2.00;;;4.70;99.90;;;;;;5094990;28;20849;-65
2023/01/17 11:44:01;;;;;;;3.53;2.10;;;4.60;99.90;;;;;;5097674;28;20410;-64
2023/01/17 11:46:29;;;;;;;3.58;2.00;;;4.60;99.90;;;;;;5102433;28;20412;-62
2023/01/17 11:48:58;;;;;;;7.40;2.20;;;4.60;99.90;;;;;;5103280;28;20432;-65
2023/01/17 11:51:27;;;;;;;4.63;2.20;;;4.60;99.90;;;;;;5102291;28;20441;-63
2023/01/17 11:54:06;;;;;;;5.25;1.73;;;4.60;99.90;;;;;;5099086;28;20413;-64
2023/01/17 11:56:36;;;;;;;4.82;1.90;;;4.50;99.90;;;;;;5093738;28;20417;-64
2023/01/17 11:59:28;;;;;;;5.10;2.10;;;4.50;99.90;;;;;;5094554;28;20420;-66
2023/01/17 12:02:23;;;;;;;5.07;2.10;;;4.50;99.90;;;;;;5093855;28;20414;-65
2023/01/17 12:04:59;;;;;;;4.68;2.13;;;4.50;99.90;;;;;;5092959;28;20413;-65
2023/01/17 12:07:33;;;;;;;4.93;1.60;;;4.70;99.90;;;;;;5093123;28;20405;-65
2023/01/17 12:10:07;;;;;;;4.72;1.80;;;4.80;99.90;;;;;;5093134;28;20417;-65
2023/01/17 12:15:47;;;;;;;4.07;1.80;;;4.90;99.90;;;;;;5094347;28;20401;-65
2023/01/17 12:18:40;;;;;;;4.53;1.70;;;4.90;99.40;;;;;;5099518;28;20496;-66
2023/01/17 12:21:16;;;;;;;4.13;1.70;;;4.90;98.50;;;;;;5098880;28;20390;-65
2023/01/17 12:24:03;;;;;;;4.35;2.10;;;5.00;99.20;;;;;;5100821;28;20406;-67
2023/01/17 12:26:37;;;;;;;3.83;1.57;;;5.10;99.10;;;;;;5099470;28;20402;-65
2023/01/17 12:29:42;;;;;;;2.20;1.50;;;5.30;98.70;;;;;;5099729;28;20409;-65
2023/01/17 12:32:37;;;;;;;2.75;1.30;;;5.50;98.30;;;;;;5102483;28;20421;-65
2023/01/17 12:35:12;;;;;;;3.43;1.50;;;5.60;97.20;;;;;;5104095;28;20445;-66
2023/01/17 12:37:41;;;;;;;5.13;1.70;;;5.60;96.20;;;;;;5105408;28;20429;-63
2023/01/17 12:40:19;;;;;;;5.50;1.98;;;5.50;96.00;;;;;;5106752;28;20422;-63
2023/01/17 12:42:51;;;;;;;3.53;1.87;;;5.30;95.30;;;;;;5106557;28;20517;-63
2023/01/17 12:45:26;;;;;;;3.95;1.60;;;5.20;95.40;;;;;;5106156;28;20416;-63
2023/01/17 12:47:59;;;;;;;5.45;1.75;;;5.10;95.90;;;;;;5099246;28;20448;-64
2023/01/17 12:50:32;;;;;;;3.30;1.63;;;4.90;96.30;;;;;;5099122;28;20409;-61
2023/01/17 12:53:05;;;;;;;3.15;1.70;;;4.80;96.10;;;;;;5101394;28;20471;-62
2023/01/17 12:55:46;;;;;;;7.00;3.57;;;4.80;96.30;;;;;;5099408;28;20410;-63
2023/01/17 12:58:19;;;;;;;2.60;1.80;;;4.80;97.30;;;;;;5098418;28;20413;-62
2023/01/17 13:00:53;;;;;;;4.70;1.60;;;4.70;96.90;;;;;;5099305;28;20418;-63
2023/01/17 13:03:27;;;;;;;2.75;1.50;;;4.60;96.70;;;;;;5098448;28;20413;-62
2023/01/17 13:05:56;;;;;;;5.13;2.30;;;4.50;96.30;;;;;;5098173;28;20785;-62
2023/01/17 13:08:28;;;;;;;3.80;1.80;;;4.40;96.50;;;;;;5097893;28;20758;-63
2023/01/17 13:10:59;;;;;;;4.60;2.30;;;4.30;96.80;;;;;;5096612;28;20509;-63
2023/01/17 13:13:27;;;;;;;4.73;1.70;;;4.30;97.10;;;;;;5097268;28;20471;-63
2023/01/17 13:15:59;;;;;;;7.65;2.33;;;4.20;96.90;;;;;;5097537;28;20890;-64
2023/01/17 13:18:28;;;;;;;5.70;2.45;;;4.20;96.70;;;;;;5098664;28;20410;-63
2023/01/17 13:21:06;;;;;;;3.85;1.88;;;4.10;96.60;;;;;;5098014;28;20497;-63
2023/01/17 13:23:54;;;;;;;4.25;2.30;;;4.20;96.90;;;;;;5098235;28;20452;-60
2023/01/17 13:26:32;;;;;;;4.50;2.00;;;4.30;97.30;;;;;;5098674;28;20774;-64
2023/01/17 13:29:07;;;;;;;7.28;2.20;;;4.40;96.40;;;;;;5097340;28;20412;-65
2023/01/17 13:31:46;;;;;;;4.35;2.30;;;4.40;96.00;;;;;;5099226;28;20410;-64
2023/01/17 14:02:40;;;;;;;6.70;2.97;;;4.10;93.00;;;;;;5132224;27;20352;-63
2023/01/17 14:05:13;;;;;;;6.78;2.85;;;4.00;96.40;;;;;;5132467;27;20484;-63
2023/01/17 14:07:46;;;;;;;3.58;2.60;;;4.00;96.20;;;;;;5132279;27;20411;-63
2023/01/17 14:10:28;;;;;;;4.70;2.30;;;4.00;96.30;;;;;;5131821;27;20473;-63
2023/01/17 14:12:56;;;;;;;7.55;2.90;;;4.00;96.20;;;;;;5132400;27;20491;-62
2023/01/17 14:15:25;;;;;;;4.78;3.47;;;4.00;96.30;;;;;;5132577;27;20407;-64
2023/01/17 14:17:57;;;;;;;5.13;3.08;;;4.00;96.60;;;;;;5131727;27;20415;-63
2023/01/17 14:20:45;;;;;;;8.70;4.00;;;4.00;97.10;;;;;;5131195;27;20840;-64
2023/01/17 14:23:30;;;;;;;14.35;7.63;;;4.10;97.60;;;;;;5132949;27;20404;-64
2023/01/17 14:26:11;;;;;;;8.43;3.88;;;4.10;97.60;;;;;;5133492;27;20414;-62
2023/01/17 14:28:37;;;;;;;7.53;4.22;;;4.00;97.30;;;;;;5132033;27;20411;-63
2023/01/17 14:31:10;;;;;;;11.38;6.20;;;4.00;97.40;;;;;;5131764;27;20938;-63
2023/01/17 14:33:40;;;;;;;7.80;4.78;;;4.00;97.30;;;;;;5131389;27;20435;-63
2023/01/17 14:36:13;;;;;;;8.18;3.97;;;4.00;97.20;;;;;;5131626;27;20883;-63
2023/01/17 14:38:43;;;;;;;5.50;3.40;;;4.00;97.40;;;;;;5132735;27;20505;-64
2023/01/17 14:41:13;;;;;;;10.18;4.28;;;4.00;97.30;;;;;;5131913;27;20404;-62
2023/01/17 14:43:42;;;;;;;7.00;4.00;;;3.90;97.50;;;;;;5131587;27;20861;-64
2023/01/17 14:46:17;;;;;;;5.40;3.80;;;3.90;97.80;;;;;;5131536;27;20908;-63
2023/01/17 14:48:46;;;;;;;6.90;4.25;;;3.90;98.20;;;;;;5132308;27;20420;-63
2023/01/17 14:51:14;;;;;;;6.43;4.40;;;3.80;98.00;;;;;;5131616;27;20420;-62
2023/01/17 14:53:53;;;;;;;6.65;4.40;;;3.80;98.40;;;;;;5131965;27;20411;-64
2023/01/17 14:56:19;;;;;;;5.30;4.05;;;3.80;98.70;;;;;;5132032;27;20483;-62
2023/01/17 14:58:46;;;;;;;6.90;4.20;;;3.80;99.00;;;;;;5132404;27;20418;-63
2023/01/17 15:01:15;;;;;;;7.13;4.40;;;3.80;99.50;;;;;;5133124;22;20431;-59
2023/01/17 15:03:46;;;;;;;6.82;4.72;;;3.70;99.80;;;;;;5074201;28;20414;-61
2023/01/17 15:06:18;;;;;;;6.05;4.50;;;3.70;99.90;;;;;;5074630;28;20498;-61
2023/01/17 15:08:46;;;;;;;7.10;4.50;;;3.70;99.90;;;;;;5074836;28;20425;-61
2023/01/17 15:11:19;;;;;;;7.25;4.82;;;3.60;99.90;;;;;;5086264;28;20438;-59
2023/01/17 15:13:48;;;;;;;5.93;4.95;;;3.60;99.90;;;;;;5094805;28;20854;-62
2023/01/17 15:16:22;;;;;;;10.20;5.82;;;3.50;99.90;;;;;;5094678;28;20445;-62
2023/01/17 15:18:52;;;;;;;6.55;4.90;;;3.50;99.90;;;;;;5094973;28;20414;-61